Kystovka, Russia
Current Conditions -  °F | °C
As of 8:00 PM on Monday 20 Oct 2014 (Local Time) from UNOO Reporting Station
Snow Showers Snow Showers  
Wind Chill: 27°   Ceiling: 1500
Heat Index: 34°   Visibility: 0.81mi
Dew Point: 32°   Wind: 9mph
Humidity: 93%   Direction: 120°ESE
Pressure: 29.41"   Gusts: NA
Location:  56.6°N, 76.9°E
Report Text: UNOO 201300Z 12004MPS 1300 R25/1400VP1500D SHSN BKN015 BKN033CB01/M00 Q0996 25CLRD60 TEMPO 1000 SHSN BKN007 RMK QFE739
Loading
Personal Weather Stations






























Interactive Weather Map
Tropical Storm Tracking
New forecast layout! Learn more

10-Day Weather Forecast

Advertisements
Track Severe Weather on mobile